Fahad Mabkhout

Scout - Al Wahda
20 Nov 2027
Saturday
Process

Personality

Adaptability (14) Ambition (12) Controversy (12) Loyalty (3) Pressure (16) Professionalism (2) Sportsmanship (1) Temperament (10)

Profile

Coaching Style Democratic
License Continental Pro
Determination 8
Man Management 5
Motivating 5
Discipline 12
Job Satisfaction
100%
Fatigue
0%
Role Scout
Wage 35.2K p/w
Contract 14.03.2029

Performance

Behaviour Good
Training Effectiveness
31%
Player Development
50%
Injury Prevention
50%
Tactical Implementation
20%

Recent Events

Attended a recruitment meeting 7d ago
Attended a recruitment meeting 14d ago
Attended a recruitment meeting 21d ago
Attended a recruitment meeting 28d ago
Attended a recruitment meeting 35d ago
Attended a recruitment meeting 42d ago
Attended a recruitment meeting 49d ago
Attended a recruitment meeting 56d ago

Currently Monitoring

96
Player Club Status Ability Confidence Watched Last Observed Latest Vote
Marouan Azarkan Al Nasr Active 115 / 120 44% 1 28.06.2027 -
Sory Kaba Al Dhafra Active 108 / 125 44% 1 14.06.2027 -
Ollie Watkins Al-Hilal Rejected 160 / 153 40% 3 29.05.2027 Reject
Louie Barry Sheffield Wednesday Active 114 / 120 40% 1 29.05.2027 -
Othmane Maamma Watford Rejected 114 / 123 40% 3 28.05.2027 Reject
Alessio Zerbin Frosinone Active 127 / 125 40% 4 28.05.2027 -
Paris Maghoma Norwich City Active 119 / 121 40% 1 26.05.2027 -
Matheus Gonçalves Al-Ahli Rejected 117 / 125 40% 12 25.05.2027 Reject
Kellen Fisher Norwich City Active 110 / 124 40% 1 25.05.2027 -
Tatsuhiro Sakamoto Coventry City Active 114 / 124 40% 1 24.05.2027 -
Tyler Goodrham Oxford United Active 124 / 120 40% 1 24.05.2027 -
Mihailo Ivanović Millwall Active 130 / 124 40% 1 22.05.2027 -
Andre Brooks Sheffield United Active 130 / 128 40% 2 18.05.2027 -
Saša Lukić Ipswich Town Active 145 / 139 40% 1 18.05.2027 -
Lamine Cissé Peterborough United Active 136 / 128 40% 3 17.05.2027 -
Stephy Mavididi Leicester City Active 120 / 122 40% 1 17.05.2027 -
Theo Bongonda Al-Faisaly Active 145 / 129 40% 2 16.05.2027 -
Oladapo Afolayan Blackburn Rovers Active 113 / 118 40% 1 16.05.2027 -
Samuel Lucero Defensa y Justicia Active 113 / 121 40% 1 16.05.2027 -
Lucas Høgsberg Paris Saint-Germain Active 133 / 147 40% 1 16.05.2027 -
Callum O'Hare Sheffield United Active 125 / 130 40% 1 13.05.2027 -
Riley Owen Wycombe Wanderers Active 109 / 102 40% 2 12.05.2027 -
Tommaso Cecotti Carpi Active 83 / 97 40% 2 12.05.2027 -
Aaron Collins Milton Keynes Dons Active 116 / 123 40% 1 11.05.2027 -
Yusuf Akçiçek Al-Hilal Active 109 / 130 40% 2 09.05.2027 -
Lucas Mbamba Westerlo Active 75 / 91 40% 1 09.05.2027 -
Joseph Namatane FC Metz Active 91 / 101 40% 1 08.05.2027 -
Juan David Arizala Udinese Active 114 / 127 40% 1 08.05.2027 -
Milson Al Jazira Lost 118 / 122 40% 5 07.05.2027 -
Jack Diamond Stockport County Active 113 / 111 40% 1 05.05.2027 -
Dylan Lawlor Cardiff City Active 114 / 124 40% 2 03.05.2027 -
Farhah Al-Shamrani Al-Ittihad Active 94 / 103 40% 1 03.05.2027 -
Ilias Chair Queens Park Rangers Active 123 / 131 40% 3 02.05.2027 -
Zeidane Inoussa Swansea City Active 122 / 126 40% 2 01.05.2027 -
Helinho Toluca Active 156 / 123 40% 1 01.05.2027 -
Leandro Martins Benfica Active 99 / 104 40% 5 27.04.2027 -
Lucas Jetten Cambuur Active 116 / 118 40% 1 27.04.2027 -
David Ozoh Derby County Active 109 / 119 40% 1 26.04.2027 -
Surprise Manthosi Polokwane City Active 99 / 89 40% 2 24.04.2027 -
Rúben Neves Al-Hilal Active 158 / 149 40% 2 19.04.2027 -
Relebohile Mofokeng Orlando Pirates Active 108 / 131 40% 2 16.04.2027 -
Karlan Grant West Bromwich Albion Active 118 / 127 40% 1 16.04.2027 -
Isaiah Jones Luton Town Active 126 / 118 40% 1 14.04.2027 -
Mohammed Wakaso Hasaacas Active 87 / 96 40% 1 14.04.2027 -
Gonçalo Oliveira Benfica Active 119 / 114 40% 1 14.04.2027 -
Malcom Al Jazira Active 162 / 141 40% 2 12.04.2027 -
Musab Al-Juwayr Al-Qadisiyah Active 125 / 139 40% 3 11.04.2027 -
Max Conway Bolton Wanderers Active 109 / 114 40% 1 11.04.2027 -
Saviour Godwin Baniyas Active 131 / 127 40% 2 10.04.2027 -
Ryoya Morishita Blackburn Rovers Active 132 / 127 40% 1 09.04.2027 -
Jonathan De Irastorza Levante Active 116 / 127 40% 3 08.04.2027 -
Andrey Ivlev Nizhniy Novgorod Active 99 / 121 40% 2 04.04.2027 -
Joel McGregor Swindon Town Active 100 / 99 40% 1 04.04.2027 -
Mehdi Ghayedi Al Nasr Active 144 / 131 40% 3 02.04.2027 -
Mathias Jørgensen Blackburn Rovers Active 115 / 125 40% 1 30.03.2027 -
Yacine Adli Al-Shabab Active 129 / 136 40% 1 29.03.2027 -
Khalid Abdulrahman Al Shabab Active 142 / 137 40% 2 27.03.2027 -
Lukáš Haraslín Al-Fateh Active 137 / 142 40% 2 26.03.2027 -
German Ignatov Rostov Active 90 / 104 40% 1 26.03.2027 -
Tiago Freitas Benfica Active 109 / 118 40% 2 23.03.2027 -
Facundo Di Biasi Getafe Active 121 / 126 40% 1 22.03.2027 -
Samuele Diodato Lumezzane Active 78 / 97 40% 1 22.03.2027 -
Morlaye Sylla Damac Active 115 / 121 40% 1 17.03.2027 -
Farid El Melali CR Belouizdad Active 114 / 136 40% 2 16.03.2027 -
Jaime Seoane Al-Faisaly Active 126 / 130 40% 1 15.03.2027 -
Camilo Durán Bloemfontein Celtic Active 103 / 116 40% 1 14.03.2027 -
Mandla Mokotjo SuperSport United Active 97 / 85 40% 1 14.03.2027 -
Angelo Fulgini Al-Khaleej Active 131 / 131 40% 1 12.03.2027 -
Christian Krasnodar Active 133 / 130 40% 1 11.03.2027 -
Marquinhos APOEL Active 128 / 120 40% 1 08.03.2027 -
Riyad Idrissi Torino Active 117 / 125 40% 1 06.03.2027 -
Mahamadou Doumbia Al-Ittihad Active 132 / 128 40% 1 05.03.2027 -
Diego Rossi Forli Active 83 / 95 40% 1 03.03.2027 -
Salem Al Naqbi Al Shabab Active 91 / 115 40% 2 01.03.2027 -
Bernard Tekpetey Ludogorets Active 135 / 125 40% 1 28.02.2027 -
Ousmane Camara Sharjah Active 110 / 126 40% 1 20.02.2027 -
Sergej Milinković-Savić Al-Hilal Active 169 / 163 40% 1 14.02.2027 -
Kevin Agudelo Al Nasr Active 135 / 123 40% 1 13.02.2027 -
Ali Majrashi Al-Ahli Active 138 / 128 40% 1 12.02.2027 -
Christopher Bonsu Baah Al-Qadisiyah Active 113 / 127 40% 2 08.02.2027 -
Aschraf El Mahdioui Al-Taawoun Active 121 / 130 40% 1 08.02.2027 -
Gorka Gorosabel Real Sociedad Active 92 / 121 40% 3 25.01.2027 -
Asher Agbinone Baniyas Active 81 / 95 40% 2 25.01.2027 -
Toni Tamarit Alverca Active 102 / 123 40% 1 29.12.2026 -
Thalys Almería Active 118 / 119 40% 1 26.12.2026 -
Amine Moussaoui Angers SCO Active 91 / 110 40% 1 22.12.2026 -
Faisal Al-Abdulwahed Al-Fateh Active 89 / 88 40% 1 20.12.2026 -
Monty Batlhabane Polokwane City Active 79 / 87 40% 2 30.11.2026 -
Dramane Kamagaté USM Alger Active 116 / 105 40% 2 29.11.2026 -
Jofre Torrents Ajax Active 128 / 139 40% 1 19.11.2026 -
João Simões Sporting CP Active 122 / 130 40% 1 14.11.2026 -
Matheus Alves Zenit Active 136 / 132 40% 1 10.11.2026 -
Fahad Al Shamsi Al Shabab Active 118 / 114 40% 1 02.11.2026 -
Alexei Dominguez Pachuca Active 105 / 119 40% 1 02.11.2026 -
Mohamed Raafat Al Ahly Active 83 / 88 40% 1 03.08.2026 -
Miguel Vargas Universitario Active 106 / 119 40% 1 01.08.2026 -